Time;durP1;ratioP1;P1;durP2;ratioP2;P2;SDS_P1;SDS_P2;PMS_P1;PMS_P2;Temp;Humidity;BMP_temperature;BMP_pressure;BME280_temperature;BME280_humidity;BME280_pressure;Samples;Min_cycle;Max_cycle;Signal;HPM_P1;HPM_P2
2022/06/25 00:01:19;;;;;;;11.07;7.53;;;17.50;99.90;;;;;;5014823;28;20085;-69
2022/06/25 00:03:45;;;;;;;15.48;6.82;;;17.40;99.90;;;;;;5015571;28;20048;-69
2022/06/25 00:06:11;;;;;;;13.60;7.50;;;17.40;99.90;;;;;;5015703;28;20042;-69
2022/06/25 00:08:37;;;;;;;11.07;7.18;;;17.40;99.90;;;;;;5015446;28;20089;-70
2022/06/25 00:11:04;;;;;;;9.30;6.60;;;17.30;99.90;;;;;;5016070;28;20042;-70
2022/06/25 00:13:30;;;;;;;12.27;7.70;;;17.20;99.90;;;;;;5015395;28;20132;-69
2022/06/25 00:15:56;;;;;;;9.68;7.35;;;17.20;99.90;;;;;;5014789;28;20045;-69
2022/06/25 00:18:22;;;;;;;11.43;7.63;;;17.20;99.90;;;;;;4998635;28;20068;-69
2022/06/25 00:20:47;;;;;;;11.13;7.85;;;17.20;99.90;;;;;;5015078;28;20042;-70
2022/06/25 00:23:13;;;;;;;11.20;8.32;;;17.20;99.90;;;;;;4998539;28;20544;-68
2022/06/25 00:25:39;;;;;;;11.73;7.78;;;17.20;99.90;;;;;;4998092;28;20108;-71
2022/06/25 00:28:05;;;;;;;10.82;8.10;;;17.10;99.90;;;;;;5015275;28;20042;-69
2022/06/25 00:30:31;;;;;;;13.40;8.40;;;17.10;99.90;;;;;;4997421;28;20119;-70
2022/06/25 00:32:57;;;;;;;11.95;8.98;;;17.10;99.90;;;;;;4981906;28;20053;-68
2022/06/25 00:35:23;;;;;;;12.63;8.23;;;17.10;99.90;;;;;;4998062;28;20045;-68
2022/06/25 00:37:48;;;;;;;12.20;8.77;;;17.00;99.90;;;;;;5015108;28;20048;-69
2022/06/25 00:40:14;;;;;;;12.77;8.55;;;17.00;99.90;;;;;;4997734;28;20045;-69
2022/06/25 00:42:44;;;;;;;12.95;8.80;;;17.00;99.90;;;;;;5014582;28;20042;-69
2022/06/25 00:45:10;;;;;;;14.00;9.18;;;17.00;99.90;;;;;;4998870;28;20054;-69
2022/06/25 00:47:35;;;;;;;13.02;8.50;;;17.00;99.90;;;;;;5001364;28;20366;-69
2022/06/25 00:50:01;;;;;;;11.63;7.50;;;17.00;99.90;;;;;;4985758;28;20050;-68
2022/06/25 00:52:30;;;;;;;13.48;8.32;;;17.00;99.90;;;;;;5001875;28;20406;-69
2022/06/25 00:55:05;;;;;;;10.55;8.07;;;17.00;99.90;;;;;;5001551;28;20370;-69
2022/06/25 00:57:33;;;;;;;10.05;7.80;;;17.00;99.90;;;;;;5018533;28;20046;-69
2022/06/25 01:00:10;;;;;;;13.70;9.43;;;17.00;99.90;;;;;;5018280;28;20046;-69
2022/06/25 01:02:36;;;;;;;9.65;7.47;;;16.90;99.90;;;;;;5018913;28;20061;-69
2022/06/25 01:05:11;;;;;;;15.32;7.65;;;16.90;99.90;;;;;;5001890;28;20045;-69
2022/06/25 01:07:38;;;;;;;12.57;6.72;;;16.90;99.90;;;;;;5001041;28;20107;-70
2022/06/25 01:10:06;;;;;;;9.05;6.88;;;16.90;99.90;;;;;;5001716;28;20056;-69
2022/06/25 01:12:32;;;;;;;11.95;7.45;;;16.80;99.90;;;;;;5001546;28;20046;-69
2022/06/25 01:15:02;;;;;;;9.60;6.03;;;16.90;99.90;;;;;;5000932;28;20045;-69
2022/06/25 01:17:29;;;;;;;9.73;7.10;;;16.90;99.90;;;;;;5018903;28;20042;-70
2022/06/25 01:19:55;;;;;;;8.32;6.28;;;16.80;99.90;;;;;;5000858;28;20120;-69
2022/06/25 01:22:21;;;;;;;8.57;6.05;;;16.80;99.90;;;;;;5018190;28;20206;-69
2022/06/25 01:24:47;;;;;;;7.10;5.63;;;16.80;99.90;;;;;;5001157;28;20050;-69
2022/06/25 01:27:16;;;;;;;7.93;5.45;;;16.80;99.90;;;;;;5001474;28;20042;-69
2022/06/25 01:29:43;;;;;;;9.15;6.80;;;16.80;99.90;;;;;;5000478;28;20054;-68
2022/06/25 01:32:10;;;;;;;9.80;7.00;;;16.70;99.90;;;;;;5001267;28;20115;-70
2022/06/25 01:34:36;;;;;;;9.27;5.80;;;16.70;99.90;;;;;;5016984;28;20101;-69
2022/06/25 01:37:02;;;;;;;9.35;5.88;;;16.70;99.90;;;;;;5000878;28;20073;-69
2022/06/25 01:39:28;;;;;;;7.57;5.80;;;16.70;99.90;;;;;;5000619;28;20128;-69
2022/06/25 01:41:53;;;;;;;8.82;6.18;;;16.60;99.90;;;;;;5018022;28;20534;-70
2022/06/25 01:44:19;;;;;;;8.35;6.25;;;16.60;99.90;;;;;;5000900;28;20061;-69
2022/06/25 01:46:44;;;;;;;9.63;6.93;;;16.60;99.90;;;;;;5000949;28;20042;-70
2022/06/25 01:49:10;;;;;;;9.30;6.35;;;16.60;99.90;;;;;;5001224;28;20053;-69
2022/06/25 01:51:36;;;;;;;10.25;5.80;;;16.50;99.90;;;;;;5018440;28;20829;-69
2022/06/25 01:54:02;;;;;;;9.63;6.15;;;16.60;99.90;;;;;;5000258;28;20108;-69
2022/06/25 01:56:27;;;;;;;11.80;6.50;;;16.50;99.90;;;;;;4999431;28;20379;-69
2022/06/25 01:58:53;;;;;;;8.43;6.28;;;16.50;99.90;;;;;;5000126;28;20045;-69
2022/06/25 02:01:18;;;;;;;10.13;6.25;;;16.50;99.90;;;;;;5000281;28;20132;-70
2022/06/25 02:03:44;;;;;;;11.52;6.68;;;16.50;99.90;;;;;;5017734;28;20042;-70
2022/06/25 02:06:10;;;;;;;9.45;6.88;;;16.50;99.90;;;;;;5000484;28;20533;-69
2022/06/25 02:08:37;;;;;;;9.30;6.45;;;16.50;99.90;;;;;;5017799;28;20049;-69
2022/06/25 02:11:08;;;;;;;10.48;6.30;;;16.40;99.90;;;;;;5000469;28;20406;-71
2022/06/25 02:13:34;;;;;;;12.23;6.80;;;16.40;99.90;;;;;;5014281;28;20380;-69
2022/06/25 02:16:00;;;;;;;9.13;7.13;;;16.40;99.90;;;;;;5000162;28;20058;-70
2022/06/25 02:18:26;;;;;;;9.80;6.63;;;16.40;99.90;;;;;;5000632;28;20137;-70
2022/06/25 02:20:52;;;;;;;8.88;6.35;;;16.40;99.90;;;;;;5017178;28;20136;-70
2022/06/25 02:23:19;;;;;;;26.08;6.50;;;16.30;99.90;;;;;;5017069;28;20081;-70
2022/06/25 02:25:45;;;;;;;8.80;6.68;;;16.20;99.90;;;;;;5017369;28;20362;-69
2022/06/25 02:28:11;;;;;;;7.57;5.88;;;16.30;99.90;;;;;;4999490;28;20108;-69
2022/06/25 02:30:37;;;;;;;8.43;6.07;;;16.20;99.90;;;;;;4999903;28;20085;-69
2022/06/25 02:33:03;;;;;;;9.13;6.50;;;16.20;99.90;;;;;;4999423;28;20062;-69
2022/06/25 02:35:29;;;;;;;9.23;6.85;;;16.30;99.90;;;;;;5016869;28;20049;-68
2022/06/25 02:37:55;;;;;;;8.38;6.53;;;16.20;99.90;;;;;;5000251;28;20045;-69
2022/06/25 02:40:20;;;;;;;11.05;7.20;;;16.20;99.90;;;;;;5017020;28;20046;-69
2022/06/25 02:42:46;;;;;;;9.57;6.38;;;16.20;99.90;;;;;;4999810;28;20466;-69
2022/06/25 02:45:12;;;;;;;9.82;7.00;;;16.20;99.90;;;;;;5000022;28;20054;-69
2022/06/25 02:47:37;;;;;;;12.07;7.95;;;16.20;99.90;;;;;;4998653;28;20038;-69
2022/06/25 02:50:04;;;;;;;8.20;5.70;;;16.20;99.90;;;;;;4999508;28;20411;-69
2022/06/25 02:52:29;;;;;;;8.05;5.70;;;16.20;99.90;;;;;;4999356;28;20068;-69
2022/06/25 02:54:55;;;;;;;10.27;7.22;;;16.20;99.90;;;;;;5016839;28;20374;-70
2022/06/25 03:00:06;;;;;;;8.63;6.10;;;16.20;99.90;;;;;;4998964;28;20057;-69
2022/06/25 03:02:32;;;;;;;10.70;6.75;;;16.20;99.90;;;;;;5015922;28;20065;-70
2022/06/25 03:04:59;;;;;;;13.30;6.97;;;16.20;99.90;;;;;;5016496;28;20513;-69
2022/06/25 03:07:25;;;;;;;9.90;6.18;;;16.20;99.90;;;;;;5014296;28;20172;-69
2022/06/25 03:09:51;;;;;;;7.85;6.20;;;16.20;99.90;;;;;;4999623;28;20049;-70
2022/06/25 03:12:16;;;;;;;11.32;6.65;;;16.20;99.90;;;;;;4983281;28;20065;-69
2022/06/25 03:14:42;;;;;;;7.68;5.75;;;16.20;99.90;;;;;;4999001;28;20061;-69
2022/06/25 03:17:08;;;;;;;13.00;6.88;;;16.20;99.90;;;;;;5016172;28;20451;-68
2022/06/25 03:19:33;;;;;;;8.43;6.13;;;16.20;99.90;;;;;;5016241;28;20127;-69
2022/06/25 03:21:59;;;;;;;8.80;5.88;;;16.20;99.90;;;;;;5016039;28;20478;-68
2022/06/25 03:24:24;;;;;;;8.43;6.15;;;16.20;99.90;;;;;;4998087;28;20038;-70
2022/06/25 03:26:50;;;;;;;8.65;6.10;;;16.10;99.90;;;;;;5016047;28;20446;-70
2022/06/25 03:29:15;;;;;;;7.55;5.63;;;16.10;99.90;;;;;;5016308;28;20064;-69
2022/06/25 03:31:41;;;;;;;9.98;6.82;;;16.20;99.90;;;;;;4998743;28;20366;-69
2022/06/25 03:34:07;;;;;;;7.82;6.10;;;16.20;99.90;;;;;;4998803;28;20394;-69
2022/06/25 03:36:33;;;;;;;8.70;6.38;;;16.10;99.90;;;;;;4998515;28;20141;-69
2022/06/25 03:38:59;;;;;;;9.63;6.18;;;16.10;99.90;;;;;;4997994;28;20390;-68
2022/06/25 03:41:32;;;;;;;8.43;6.65;;;16.10;99.90;;;;;;4998516;28;20050;-69
2022/06/25 03:44:10;;;;;;;8.32;6.85;;;16.20;99.90;;;;;;5015664;28;20042;-68
2022/06/25 03:46:37;;;;;;;9.00;6.95;;;16.20;99.90;;;;;;5015639;28;20430;-69
2022/06/25 03:49:04;;;;;;;11.30;7.63;;;16.20;99.90;;;;;;4982510;28;20068;-70
2022/06/25 03:51:31;;;;;;;13.75;7.47;;;16.20;99.90;;;;;;5014955;28;20057;-68
2022/06/25 03:53:57;;;;;;;9.02;6.18;;;16.20;99.90;;;;;;4997841;28;20474;-69
2022/06/25 03:56:22;;;;;;;10.32;7.13;;;16.10;99.90;;;;;;4998098;28;20057;-69
2022/06/25 03:58:49;;;;;;;9.98;7.25;;;16.30;99.90;;;;;;4998180;28;20042;-69
2022/06/25 04:01:15;;;;;;;10.00;6.88;;;16.30;99.90;;;;;;5015457;28;20046;-70
2022/06/25 04:03:41;;;;;;;10.80;6.90;;;16.30;99.90;;;;;;5015450;28;20120;-69
2022/06/25 04:06:07;;;;;;;9.18;6.88;;;16.40;99.90;;;;;;4998000;28;20049;-69
2022/06/25 04:08:33;;;;;;;8.57;6.57;;;16.40;99.90;;;;;;5015799;28;20041;-69
2022/06/25 04:10:59;;;;;;;10.50;7.15;;;16.50;99.90;;;;;;4997552;28;20213;-70
2022/06/25 04:13:25;;;;;;;8.40;6.22;;;16.50;99.90;;;;;;4998338;28;20037;-69
2022/06/25 04:15:51;;;;;;;11.95;6.70;;;16.50;99.90;;;;;;5015829;28;20046;-69
2022/06/25 04:18:17;;;;;;;8.18;6.22;;;16.50;99.90;;;;;;5015651;28;20042;-68
2022/06/25 04:20:43;;;;;;;9.25;7.28;;;16.50;99.90;;;;;;5015311;28;20118;-69
2022/06/25 04:23:10;;;;;;;10.90;6.95;;;16.50;99.90;;;;;;4998304;28;20062;-69
2022/06/25 04:25:35;;;;;;;11.00;6.88;;;16.60;99.90;;;;;;4997534;28;20075;-69
2022/06/25 04:30:45;;;;;;;9.15;6.38;;;16.70;99.90;;;;;;4998245;28;20049;-70
2022/06/25 04:33:11;;;;;;;8.77;6.22;;;16.70;99.90;;;;;;4997800;28;20363;-69
2022/06/25 04:35:36;;;;;;;8.80;6.85;;;16.70;99.90;;;;;;4998067;28;20111;-68
2022/06/25 04:38:02;;;;;;;9.00;6.72;;;16.80;99.90;;;;;;4997699;28;20060;-69
2022/06/25 04:40:29;;;;;;;9.25;6.50;;;16.80;99.90;;;;;;4996947;28;20056;-69
2022/06/25 04:42:54;;;;;;;10.18;6.22;;;16.80;99.90;;;;;;4998328;28;20059;-69
2022/06/25 04:45:20;;;;;;;11.43;7.38;;;16.80;99.90;;;;;;5014897;28;20046;-69
2022/06/25 04:47:46;;;;;;;9.70;7.10;;;17.00;99.90;;;;;;4997585;28;20061;-69
2022/06/25 04:50:11;;;;;;;9.10;6.35;;;17.40;99.90;;;;;;5015130;28;20085;-69
2022/06/25 04:52:37;;;;;;;8.13;5.85;;;17.50;99.90;;;;;;5015030;28;20045;-69
2022/06/25 04:55:03;;;;;;;8.02;6.03;;;17.60;99.90;;;;;;4997077;28;20058;-69
2022/06/25 04:57:29;;;;;;;7.75;5.75;;;17.60;99.90;;;;;;4994433;28;20053;-69
2022/06/25 04:59:54;;;;;;;8.35;5.80;;;17.60;99.90;;;;;;4992898;28;20426;-69
2022/06/25 05:02:20;;;;;;;8.35;5.47;;;17.50;99.90;;;;;;4987892;28;20463;-69
2022/06/25 05:04:45;;;;;;;8.05;5.97;;;17.60;99.90;;;;;;5007623;28;20052;-69
2022/06/25 05:07:11;;;;;;;7.22;5.15;;;17.60;99.90;;;;;;5012129;28;20052;-69
2022/06/25 05:09:37;;;;;;;9.52;5.43;;;17.70;99.90;;;;;;4999107;28;20041;-70
2022/06/25 05:12:03;;;;;;;7.72;6.00;;;17.70;99.90;;;;;;5008181;28;20039;-70
2022/06/25 05:14:28;;;;;;;9.25;6.72;;;18.20;99.90;;;;;;4997302;28;20053;-69
2022/06/25 05:16:54;;;;;;;14.88;6.88;;;19.30;99.90;;;;;;4993708;28;20343;-70
2022/06/25 05:19:20;;;;;;;7.72;6.10;;;20.60;99.90;;;;;;4989441;28;20041;-69
2022/06/25 05:21:46;;;;;;;8.60;4.90;;;22.00;99.90;;;;;;5014289;28;20042;-69
2022/06/25 05:24:12;;;;;;;5.78;4.28;;;23.30;99.90;;;;;;4997307;28;20446;-70
2022/06/25 05:26:37;;;;;;;6.35;4.60;;;24.30;99.90;;;;;;5014525;28;20104;-70
2022/06/25 05:29:03;;;;;;;6.75;3.75;;;24.90;99.90;;;;;;5011895;28;20045;-70
2022/06/25 05:31:28;;;;;;;10.90;4.28;;;25.70;99.90;;;;;;4999339;28;20045;-69
2022/06/25 05:33:54;;;;;;;5.78;3.20;;;26.30;99.90;;;;;;5000766;28;20049;-69
2022/06/25 05:36:20;;;;;;;6.70;3.28;;;26.80;99.90;;;;;;5017654;28;20077;-69
2022/06/25 05:38:45;;;;;;;5.50;3.22;;;27.40;99.90;;;;;;5017679;28;20054;-70
2022/06/25 05:41:11;;;;;;;5.30;3.55;;;27.70;99.90;;;;;;5000518;28;20060;-70
2022/06/25 05:43:38;;;;;;;4.32;3.03;;;28.20;99.90;;;;;;5015350;28;20046;-70
2022/06/25 05:46:04;;;;;;;8.40;2.97;;;28.20;99.90;;;;;;5017617;28;20045;-70
2022/06/25 05:48:30;;;;;;;5.15;3.20;;;28.60;99.90;;;;;;5000218;28;20058;-70
2022/06/25 05:50:56;;;;;;;3.92;2.58;;;28.80;99.90;;;;;;5017093;28;20053;-70
2022/06/25 05:53:23;;;;;;;10.60;3.47;;;29.10;99.90;;;;;;5000096;28;20089;-69
2022/06/25 05:55:48;;;;;;;4.43;2.60;;;29.00;99.90;;;;;;5000847;28;20049;-69
2022/06/25 05:58:14;;;;;;;4.63;3.10;;;29.30;99.90;;;;;;5015187;28;20052;-70
2022/06/25 06:00:40;;;;;;;5.78;2.70;;;29.70;99.90;;;;;;5015963;28;20053;-70
2022/06/25 06:03:05;;;;;;;4.18;2.25;;;30.00;99.90;;;;;;5000388;28;20052;-69
2022/06/25 06:05:32;;;;;;;6.13;2.72;;;30.30;99.90;;;;;;4992096;28;20430;-70
2022/06/25 06:07:58;;;;;;;7.00;2.90;;;30.50;99.90;;;;;;4991534;28;20050;-72
2022/06/25 06:10:23;;;;;;;6.30;2.63;;;30.50;99.90;;;;;;5015817;28;20140;-70
2022/06/25 06:12:49;;;;;;;5.20;2.80;;;30.90;99.90;;;;;;4998894;28;20112;-70
2022/06/25 06:15:14;;;;;;;5.22;2.30;;;31.10;99.90;;;;;;4999585;28;20042;-70
2022/06/25 06:17:40;;;;;;;5.65;2.60;;;31.50;99.90;;;;;;5016682;28;20042;-70
2022/06/25 06:20:07;;;;;;;4.40;2.47;;;31.60;99.90;;;;;;4998015;28;20045;-70
2022/06/25 06:22:33;;;;;;;7.00;2.33;;;31.90;99.80;;;;;;4999310;28;20470;-70
2022/06/25 06:24:59;;;;;;;8.80;2.72;;;31.90;98.30;;;;;;5017111;28;20108;-70
2022/06/25 06:27:24;;;;;;;4.97;2.38;;;32.00;99.00;;;;;;5017647;28;20465;-70
2022/06/25 06:29:50;;;;;;;7.13;2.40;;;31.80;99.10;;;;;;4985775;28;20058;-70
2022/06/25 06:32:16;;;;;;;5.18;2.35;;;31.90;98.30;;;;;;4992571;28;20049;-70
2022/06/25 06:34:42;;;;;;;4.95;2.20;;;32.10;97.50;;;;;;4998990;28;20042;-70
2022/06/25 06:37:07;;;;;;;3.80;2.58;;;31.80;98.30;;;;;;4994098;28;20343;-70
2022/06/25 06:39:33;;;;;;;4.18;2.22;;;31.60;97.10;;;;;;4999609;28;20053;-69
2022/06/25 06:41:59;;;;;;;8.70;2.47;;;31.40;98.50;;;;;;4998172;28;20454;-69
2022/06/25 06:44:27;;;;;;;3.85;2.15;;;31.50;98.90;;;;;;5017572;28;20093;-69
2022/06/25 06:46:53;;;;;;;5.07;2.17;;;31.30;98.60;;;;;;5018279;28;20045;-70
2022/06/25 06:49:19;;;;;;;4.22;2.20;;;31.50;98.60;;;;;;5015582;28;20058;-68
2022/06/25 06:51:44;;;;;;;4.53;1.90;;;31.90;98.30;;;;;;5016334;28;20046;-68
2022/06/25 06:54:10;;;;;;;7.78;2.25;;;32.10;98.10;;;;;;5000546;28;20041;-68
2022/06/25 06:56:35;;;;;;;3.70;1.90;;;32.60;97.70;;;;;;5036610;28;20045;-68
2022/06/25 06:59:01;;;;;;;6.75;1.85;;;32.80;96.50;;;;;;5036526;28;20045;-68
2022/06/25 07:01:27;;;;;;;4.32;2.28;;;32.60;96.80;;;;;;5019330;28;20136;-68
2022/06/25 07:03:53;;;;;;;5.65;2.20;;;33.00;96.60;;;;;;5019145;28;20045;-67
2022/06/25 07:06:19;;;;;;;3.45;1.75;;;32.90;96.70;;;;;;5003807;28;20052;-69
2022/06/25 07:08:44;;;;;;;4.75;1.98;;;33.20;96.10;;;;;;5019133;28;20524;-67
2022/06/25 07:11:28;;;;;;;4.80;1.95;;;32.80;95.60;;;;;;5006663;28;20053;-69
2022/06/25 07:13:54;;;;;;;3.30;1.70;;;33.10;95.50;;;;;;5015823;28;20038;-69
2022/06/25 07:16:21;;;;;;;4.38;1.60;;;33.30;95.80;;;;;;5014927;28;20077;-69
2022/06/25 07:18:47;;;;;;;6.10;1.80;;;33.40;96.00;;;;;;4998539;28;20095;-68
2022/06/25 07:21:12;;;;;;;4.97;1.60;;;33.30;94.40;;;;;;5015704;28;20446;-67
2022/06/25 07:23:38;;;;;;;5.55;1.85;;;33.20;95.10;;;;;;5015838;28;20060;-67
2022/06/25 07:26:03;;;;;;;6.28;1.73;;;32.90;95.20;;;;;;4998746;28;20046;-69
2022/06/25 07:28:29;;;;;;;2.72;1.30;;;32.70;95.50;;;;;;4999164;28;20418;-68
2022/06/25 07:30:55;;;;;;;7.00;1.40;;;33.10;94.60;;;;;;4998703;28;20119;-67
2022/06/25 07:33:20;;;;;;;6.35;1.85;;;33.30;95.00;;;;;;4998691;28;20065;-69
2022/06/25 07:35:46;;;;;;;4.88;1.30;;;33.30;94.60;;;;;;4965444;28;20096;-68
2022/06/25 07:38:11;;;;;;;2.60;1.35;;;33.20;94.60;;;;;;5015038;28;20061;-68
2022/06/25 07:40:37;;;;;;;3.10;1.45;;;33.20;94.50;;;;;;4982552;28;20119;-68
2022/06/25 07:43:03;;;;;;;3.03;1.02;;;33.60;94.50;;;;;;4997467;28;20426;-68
2022/06/25 07:45:28;;;;;;;5.72;1.15;;;33.70;93.00;;;;;;5015039;28;20064;-68
2022/06/25 07:47:54;;;;;;;4.35;1.38;;;33.70;93.90;;;;;;4998551;28;20052;-68
2022/06/25 07:53:04;;;;;;;2.13;1.10;;;34.20;93.30;;;;;;4997731;28;20132;-69
2022/06/25 07:55:30;;;;;;;4.05;1.30;;;33.50;92.90;;;;;;4998577;28;20177;-67
2022/06/25 07:57:56;;;;;;;3.80;1.48;;;33.00;92.60;;;;;;4994558;28;20046;-67
2022/06/25 08:00:22;;;;;;;5.57;1.33;;;32.70;92.50;;;;;;5014714;28;20045;-67
2022/06/25 08:02:48;;;;;;;1.83;0.90;;;32.10;93.20;;;;;;5015414;28;20042;-67
2022/06/25 08:05:13;;;;;;;2.58;1.10;;;31.80;92.30;;;;;;5014865;28;20129;-67
2022/06/25 08:07:39;;;;;;;4.40;1.23;;;31.10;92.90;;;;;;5015211;28;20382;-69
2022/06/25 08:10:06;;;;;;;2.00;0.90;;;31.20;94.60;;;;;;4998230;28;20394;-67
2022/06/25 08:12:32;;;;;;;4.35;1.33;;;31.40;94.70;;;;;;5015304;28;20096;-70
2022/06/25 08:14:58;;;;;;;2.90;1.20;;;32.20;93.30;;;;;;4990470;28;20078;-70
2022/06/25 08:17:24;;;;;;;2.60;1.25;;;32.10;93.50;;;;;;4997224;28;20108;-67
2022/06/25 08:19:49;;;;;;;5.45;1.42;;;32.60;94.30;;;;;;5015836;28;20049;-68
2022/06/25 08:22:15;;;;;;;3.92;1.20;;;32.20;93.00;;;;;;5015273;28;20077;-68
2022/06/25 08:24:41;;;;;;;3.05;1.00;;;32.40;93.60;;;;;;5015308;28;20048;-67
2022/06/25 08:27:06;;;;;;;14.38;1.70;;;32.70;93.40;;;;;;5015397;28;20034;-68
2022/06/25 08:29:32;;;;;;;2.47;0.98;;;31.80;92.70;;;;;;5014677;28;20111;-66
2022/06/25 08:31:58;;;;;;;9.90;1.38;;;30.90;93.30;;;;;;4997330;28;20074;-68
2022/06/25 08:34:24;;;;;;;4.05;1.13;;;30.50;93.80;;;;;;5014996;28;20044;-68
2022/06/25 08:36:50;;;;;;;2.58;0.93;;;29.90;93.80;;;;;;4998163;28;20070;-67
2022/06/25 08:39:15;;;;;;;4.53;1.17;;;29.10;94.50;;;;;;5015205;28;20383;-68
2022/06/25 08:41:42;;;;;;;5.70;1.15;;;29.00;94.70;;;;;;4997808;28;20050;-68
2022/06/25 08:44:08;;;;;;;4.45;1.45;;;29.00;96.00;;;;;;5001766;28;20053;-68
2022/06/25 08:46:34;;;;;;;2.60;1.00;;;30.20;96.00;;;;;;4997515;28;20362;-67
2022/06/25 08:49:00;;;;;;;3.63;1.42;;;30.80;95.40;;;;;;4997570;28;20046;-67
2022/06/25 08:51:28;;;;;;;2.78;0.80;;;30.40;93.20;;;;;;4998508;28;20097;-68
2022/06/25 08:53:55;;;;;;;3.15;0.90;;;30.50;94.40;;;;;;5015233;28;20050;-68
2022/06/25 08:56:21;;;;;;;5.13;1.30;;;30.10;94.60;;;;;;5015157;28;20052;-67
2022/06/25 08:58:47;;;;;;;2.63;0.90;;;29.50;94.60;;;;;;4997245;28;20045;-67
2022/06/25 09:01:13;;;;;;;3.55;0.98;;;28.70;94.40;;;;;;4997508;28;20096;-68
2022/06/25 09:03:39;;;;;;;3.97;1.30;;;28.50;95.80;;;;;;4997542;28;20050;-68
2022/06/25 09:06:16;;;;;;;5.70;1.30;;;28.10;96.20;;;;;;4999423;28;20068;-68
2022/06/25 09:08:43;;;;;;;2.78;1.20;;;28.00;96.90;;;;;;5018906;28;20057;-68
2022/06/25 09:11:08;;;;;;;5.47;1.23;;;28.20;96.30;;;;;;5018376;28;20399;-67
2022/06/25 09:13:34;;;;;;;4.25;1.20;;;28.10;96.20;;;;;;5000171;28;20088;-67
2022/06/25 09:16:00;;;;;;;3.80;1.05;;;28.30;97.00;;;;;;5001142;28;20049;-67
2022/06/25 09:18:25;;;;;;;3.75;1.17;;;28.30;95.70;;;;;;5019133;28;20050;-67
2022/06/25 09:21:09;;;;;;;1.33;0.90;;;27.90;96.40;;;;;;5001345;28;20045;-67
2022/06/25 09:23:56;;;;;;;2.85;1.23;;;27.80;95.90;;;;;;5018491;28;20366;-67
2022/06/25 09:26:21;;;;;;;3.65;1.13;;;27.90;96.50;;;;;;5018822;28;20072;-67
2022/06/25 09:28:47;;;;;;;10.95;1.45;;;27.90;97.10;;;;;;5001141;28;20041;-68
2022/06/25 09:31:32;;;;;;;4.50;1.23;;;28.10;96.50;;;;;;5001623;28;20052;-67
2022/06/25 09:34:02;;;;;;;2.38;1.00;;;27.90;95.30;;;;;;5018680;28;20362;-67
2022/06/25 09:36:28;;;;;;;2.78;0.80;;;28.10;96.30;;;;;;5018087;28;20042;-67
2022/06/25 09:38:54;;;;;;;1.35;0.77;;;28.40;96.20;;;;;;5001853;28;20042;-67
2022/06/25 09:41:22;;;;;;;3.40;1.10;;;28.10;95.80;;;;;;5000923;28;20111;-67
2022/06/25 09:43:48;;;;;;;1.92;1.00;;;28.10;95.30;;;;;;5000306;28;20062;-68
2022/06/25 09:46:14;;;;;;;2.55;0.80;;;28.10;96.60;;;;;;5001151;28;20462;-67
2022/06/25 09:48:41;;;;;;;2.47;0.65;;;28.50;96.40;;;;;;5017966;28;20042;-67
2022/06/25 09:51:13;;;;;;;1.67;0.82;;;28.30;96.40;;;;;;4998925;28;20394;-67
2022/06/25 09:53:54;;;;;;;5.60;1.05;;;28.10;96.20;;;;;;5000236;28;20450;-68
2022/06/25 09:56:32;;;;;;;2.03;0.90;;;28.00;96.20;;;;;;4999600;28;20478;-67
2022/06/25 09:58:58;;;;;;;1.45;0.85;;;28.10;96.70;;;;;;4999583;28;20049;-67
2022/06/25 10:01:29;;;;;;;3.10;0.90;;;28.20;97.30;;;;;;5016737;28;20042;-68
2022/06/25 10:03:55;;;;;;;2.20;0.73;;;28.70;97.10;;;;;;5015941;28;20042;-67
2022/06/25 10:06:23;;;;;;;3.88;1.10;;;28.80;95.90;;;;;;4999819;28;20469;-69
2022/06/25 10:08:52;;;;;;;2.63;0.80;;;28.50;94.90;;;;;;4999663;28;20053;-69
2022/06/25 10:11:24;;;;;;;2.80;0.70;;;28.30;95.10;;;;;;4999738;28;20423;-69
2022/06/25 10:13:51;;;;;;;3.63;1.03;;;28.10;95.90;;;;;;4999539;28;20444;-70
2022/06/25 10:16:19;;;;;;;2.83;0.85;;;28.00;96.20;;;;;;4998375;28;20124;-69
2022/06/25 10:18:47;;;;;;;1.48;0.80;;;28.00;96.30;;;;;;5015915;28;20366;-71
2022/06/25 10:21:13;;;;;;;1.85;0.98;;;28.20;96.80;;;;;;4998776;28;20060;-70
2022/06/25 10:23:42;;;;;;;4.38;1.10;;;28.20;96.70;;;;;;4999479;28;20042;-70
2022/06/25 10:26:10;;;;;;;3.90;0.95;;;28.40;96.10;;;;;;5014811;28;20124;-71
2022/06/25 10:28:36;;;;;;;2.95;0.98;;;28.50;94.80;;;;;;5015117;28;20421;-73
2022/06/25 10:31:15;;;;;;;3.53;0.80;;;28.50;95.90;;;;;;5015631;28;20045;-71
2022/06/25 10:33:58;;;;;;;1.48;0.75;;;28.30;95.40;;;;;;5014398;28;20160;-71
2022/06/25 10:36:44;;;;;;;2.28;1.02;;;28.10;95.30;;;;;;4991115;28;20136;-71
2022/06/25 10:39:27;;;;;;;1.45;0.70;;;28.30;96.30;;;;;;5012764;28;20061;-71
2022/06/25 10:45:03;;;;;;;2.13;0.90;;;29.00;96.90;;;;;;4996095;28;20046;-72
2022/06/25 10:47:39;;;;;;;1.63;0.82;;;29.20;94.70;;;;;;4995181;28;20378;-73
2022/06/25 10:50:20;;;;;;;2.33;0.70;;;29.10;94.60;;;;;;4958715;28;1058383;-69
2022/06/25 10:53:05;;;;;;;1.90;0.90;;;29.00;95.80;;;;;;4983512;28;20050;-69
2022/06/25 10:55:56;;;;;;;3.47;0.80;;;29.00;95.50;;;;;;5012384;28;20458;-70
2022/06/25 10:58:24;;;;;;;4.15;1.00;;;28.50;94.70;;;;;;5003206;28;20443;-69
2022/06/25 11:00:51;;;;;;;2.17;1.10;;;28.10;95.00;;;;;;4999302;28;20049;-70
2022/06/25 11:03:18;;;;;;;1.98;0.85;;;27.70;95.70;;;;;;4999341;28;20054;-69
2022/06/25 11:05:45;;;;;;;2.13;0.95;;;27.40;95.30;;;;;;5016587;28;20046;-71
2022/06/25 11:08:12;;;;;;;4.38;0.90;;;27.40;95.60;;;;;;4998104;28;20096;-70
2022/06/25 11:10:40;;;;;;;3.28;1.50;;;27.70;96.20;;;;;;4995388;28;20050;-69
2022/06/25 11:13:05;;;;;;;2.20;0.90;;;28.00;96.40;;;;;;4993820;28;20363;-69
2022/06/25 11:15:39;;;;;;;1.58;0.68;;;28.10;94.20;;;;;;4998703;28;20057;-69
2022/06/25 11:18:09;;;;;;;3.92;1.02;;;28.20;95.50;;;;;;5013540;28;20045;-70
2022/06/25 11:20:36;;;;;;;1.27;0.82;;;28.30;95.50;;;;;;4993104;28;20428;-69
2022/06/25 11:23:05;;;;;;;4.43;0.82;;;28.40;95.70;;;;;;4992359;28;20046;-70
2022/06/25 11:28:53;;;;;;;1.27;0.93;;;28.40;96.30;;;;;;5011109;28;20038;-69
2022/06/25 11:31:24;;;;;;;5.35;0.80;;;28.20;95.80;;;;;;5014816;28;20390;-70
2022/06/25 11:33:51;;;;;;;3.20;1.10;;;27.90;95.60;;;;;;4999009;28;20070;-70
2022/06/25 11:36:18;;;;;;;4.57;0.80;;;27.80;96.50;;;;;;5009269;28;20046;-70
2022/06/25 11:38:51;;;;;;;6.28;1.10;;;27.90;96.60;;;;;;5016435;28;20038;-70
2022/06/25 11:41:28;;;;;;;1.75;0.70;;;28.00;96.30;;;;;;4998538;28;20103;-69
2022/06/25 11:43:54;;;;;;;1.38;0.63;;;27.80;95.70;;;;;;5015602;28;20081;-69
2022/06/25 11:46:22;;;;;;;1.55;0.60;;;27.60;96.10;;;;;;4998757;28;20458;-70
2022/06/25 11:48:49;;;;;;;2.38;0.90;;;27.70;96.20;;;;;;5015573;28;20092;-69
2022/06/25 11:51:26;;;;;;;2.72;1.00;;;27.90;96.60;;;;;;4982676;28;20066;-70
2022/06/25 11:53:52;;;;;;;4.38;1.77;;;28.10;96.70;;;;;;4998534;28;20053;-69
2022/06/25 11:56:18;;;;;;;2.33;0.80;;;28.50;96.40;;;;;;5015884;28;20438;-71
2022/06/25 11:58:45;;;;;;;2.70;0.80;;;28.80;96.30;;;;;;4998620;28;20129;-69
2022/06/25 12:01:11;;;;;;;1.40;0.75;;;29.00;95.90;;;;;;4997966;28;20053;-69
2022/06/25 12:03:37;;;;;;;3.15;0.80;;;29.10;95.80;;;;;;4982164;28;20049;-71
2022/06/25 12:06:04;;;;;;;3.38;1.08;;;29.10;95.90;;;;;;4995065;28;20398;-69
2022/06/25 12:08:30;;;;;;;3.97;1.30;;;29.10;95.80;;;;;;4993050;28;20057;-70
2022/06/25 12:10:58;;;;;;;2.20;0.80;;;28.70;95.20;;;;;;4995188;28;20034;-69
2022/06/25 12:13:28;;;;;;;3.60;1.20;;;28.30;94.90;;;;;;5015003;28;20057;-69
2022/06/25 12:15:58;;;;;;;54.85;26.88;;;28.10;95.80;;;;;;5015621;28;20085;-70
2022/06/25 12:18:39;;;;;;;7.00;4.22;;;28.00;95.90;;;;;;4998274;28;20466;-70
2022/06/25 12:21:05;;;;;;;4.90;2.67;;;27.80;95.80;;;;;;4997882;28;20045;-69
2022/06/25 12:23:53;;;;;;;2.75;1.65;;;27.70;95.70;;;;;;4997185;28;20057;-70
2022/06/25 12:26:29;;;;;;;2.92;1.00;;;27.70;95.80;;;;;;4992462;28;20042;-68
2022/06/25 12:29:13;;;;;;;3.78;1.40;;;27.70;96.20;;;;;;4995611;28;20086;-67
2022/06/25 12:31:51;;;;;;;3.90;1.30;;;27.70;96.30;;;;;;4995807;28;20054;-68
2022/06/25 12:34:17;;;;;;;3.65;1.98;;;27.50;96.40;;;;;;4982889;28;20046;-67
2022/06/25 12:36:43;;;;;;;3.70;1.40;;;27.40;96.30;;;;;;5013788;28;20046;-68
2022/06/25 12:39:37;;;;;;;3.67;1.30;;;27.50;96.60;;;;;;5013031;28;20092;-68
2022/06/25 12:42:04;;;;;;;2.70;1.00;;;27.30;96.50;;;;;;5013341;28;20092;-68
2022/06/25 12:44:34;;;;;;;6.25;1.10;;;27.00;97.00;;;;;;5014247;28;20042;-67
2022/06/25 12:47:08;;;;;;;3.47;1.30;;;26.90;97.20;;;;;;5014262;28;20461;-69
2022/06/25 12:49:44;;;;;;;2.75;1.02;;;26.80;97.90;;;;;;4996548;28;20539;-69
2022/06/25 12:52:11;;;;;;;3.30;0.88;;;26.70;98.30;;;;;;4980018;28;20058;-69
2022/06/25 12:54:49;;;;;;;4.05;1.10;;;26.80;98.20;;;;;;4978201;28;20046;-67
2022/06/25 12:57:29;;;;;;;2.20;1.00;;;26.80;98.30;;;;;;4995222;28;20054;-68
2022/06/25 12:59:57;;;;;;;2.22;1.10;;;26.80;98.40;;;;;;5012533;28;20128;-68
2022/06/25 13:02:23;;;;;;;3.55;1.20;;;26.70;98.10;;;;;;4989795;28;20045;-68